createdAt,value
2017-06-24T00:00:05.499Z,17.20
2017-06-24T00:02:33.027Z,17.10
2017-06-24T00:05:01.326Z,17.10
2017-06-24T00:07:28.882Z,17.00
2017-06-24T00:09:56.410Z,17.00
2017-06-24T00:12:24.737Z,16.80
2017-06-24T00:14:52.263Z,16.80
2017-06-24T00:17:20.582Z,16.60
2017-06-24T00:19:48.110Z,16.60
2017-06-24T00:22:15.671Z,16.50
2017-06-24T00:24:43.203Z,16.40
2017-06-24T00:27:10.762Z,16.40
2017-06-24T00:29:38.291Z,16.30
2017-06-24T00:32:05.841Z,16.30
2017-06-24T00:34:33.374Z,16.20
2017-06-24T00:37:00.951Z,16.10
2017-06-24T00:39:28.467Z,16.10
2017-06-24T00:41:56.790Z,16.10
2017-06-24T00:44:24.310Z,16.10
2017-06-24T00:46:52.626Z,16.10
2017-06-24T00:49:20.158Z,16.10
2017-06-24T00:51:47.704Z,16.20
2017-06-24T00:54:15.994Z,16.30
2017-06-24T00:56:43.546Z,16.20
2017-06-24T00:59:11.838Z,16.30
2017-06-24T01:01:39.386Z,16.30
2017-06-24T01:04:06.910Z,16.30
2017-06-24T01:06:34.479Z,16.40
2017-06-24T01:09:02.002Z,16.40
2017-06-24T01:11:29.527Z,16.40
2017-06-24T01:13:57.083Z,16.50
2017-06-24T01:16:24.619Z,16.60
2017-06-24T01:18:52.175Z,16.60
2017-06-24T01:21:19.747Z,16.60
2017-06-24T01:23:48.069Z,16.70
2017-06-24T01:26:15.598Z,16.60
2017-06-24T01:28:43.149Z,16.70
2017-06-24T01:31:11.447Z,16.70
2017-06-24T01:33:39.002Z,16.60
2017-06-24T01:36:06.534Z,16.60
2017-06-24T01:38:34.099Z,16.50
2017-06-24T01:41:02.394Z,16.50
2017-06-24T01:43:29.950Z,16.40
2017-06-24T01:45:58.251Z,16.30
2017-06-24T01:48:25.802Z,16.30
2017-06-24T01:50:53.335Z,16.30
2017-06-24T01:53:21.660Z,16.40
2017-06-24T01:55:49.191Z,16.40
2017-06-24T01:58:16.749Z,16.40
2017-06-24T02:00:44.292Z,16.30
2017-06-24T02:03:12.622Z,16.40
2017-06-24T02:05:40.155Z,16.40
2017-06-24T02:08:07.727Z,16.40
2017-06-24T02:10:35.255Z,16.30
2017-06-24T02:13:03.550Z,16.30
2017-06-24T02:15:31.110Z,16.30
2017-06-24T02:17:58.641Z,16.30
2017-06-24T02:20:26.971Z,16.40
2017-06-24T02:22:54.498Z,16.30
2017-06-24T02:25:22.054Z,16.30
2017-06-24T02:27:49.594Z,16.20
2017-06-24T02:30:17.920Z,16.10
2017-06-24T02:32:45.450Z,16.10
2017-06-24T02:35:13.019Z,16.00
2017-06-24T02:37:40.558Z,15.90
2017-06-24T02:40:08.882Z,15.60
2017-06-24T02:42:36.414Z,15.60
2017-06-24T02:45:03.970Z,15.50
2017-06-24T02:47:31.502Z,15.40
2017-06-24T02:49:59.076Z,15.30
2017-06-24T02:52:27.376Z,15.30
2017-06-24T02:54:54.934Z,15.20
2017-06-24T02:57:22.491Z,15.20
2017-06-24T02:59:50.055Z,15.10
2017-06-24T03:02:17.595Z,15.30
2017-06-24T03:04:45.914Z,15.50
2017-06-24T03:07:13.446Z,15.50
2017-06-24T03:09:40.999Z,15.50
2017-06-24T03:12:20.426Z,15.40
2017-06-24T03:14:48.746Z,15.40
2017-06-24T03:17:16.275Z,15.40
2017-06-24T03:19:43.806Z,15.50
2017-06-24T03:22:11.362Z,15.40
2017-06-24T03:24:38.894Z,15.50
2017-06-24T03:27:06.451Z,15.50
2017-06-24T03:29:33.978Z,15.60
2017-06-24T03:32:01.535Z,15.70
2017-06-24T03:34:29.071Z,15.70
2017-06-24T03:36:57.399Z,15.80
2017-06-24T03:39:24.927Z,15.80
2017-06-24T03:41:52.484Z,15.70
2017-06-24T03:44:20.010Z,15.70
2017-06-24T03:46:47.570Z,15.70
2017-06-24T03:49:15.098Z,15.90
2017-06-24T03:51:42.658Z,15.80
2017-06-24T03:54:10.192Z,15.80
2017-06-24T03:56:37.750Z,15.80
2017-06-24T03:59:05.279Z,15.70
2017-06-24T04:01:32.839Z,15.80
2017-06-24T04:04:01.138Z,15.80
2017-06-24T04:06:28.691Z,15.80
2017-06-24T04:08:56.987Z,15.60
2017-06-24T04:11:24.546Z,15.60
2017-06-24T04:13:52.082Z,15.90
2017-06-24T04:16:20.379Z,15.80
2017-06-24T04:18:47.940Z,15.80
2017-06-24T04:21:15.475Z,15.70
2017-06-24T04:23:43.805Z,15.70
2017-06-24T04:26:11.331Z,15.60
2017-06-24T04:28:38.887Z,15.70
2017-06-24T04:31:06.423Z,15.70
2017-06-24T04:33:33.974Z,15.70
2017-06-24T04:36:01.515Z,15.70
2017-06-24T04:38:29.067Z,15.70
2017-06-24T04:40:56.586Z,15.90
2017-06-24T04:43:24.138Z,15.90
2017-06-24T04:45:52.430Z,15.90
2017-06-24T04:48:19.986Z,15.90
2017-06-24T04:50:47.519Z,15.90
2017-06-24T04:53:15.079Z,15.90
2017-06-24T04:55:42.611Z,15.90
2017-06-24T04:58:10.162Z,15.80
2017-06-24T05:00:37.695Z,16.10
2017-06-24T05:03:05.251Z,16.00
2017-06-24T05:05:32.778Z,15.90
2017-06-24T05:08:01.099Z,16.20
2017-06-24T05:10:28.628Z,16.10
2017-06-24T05:12:56.959Z,16.00
2017-06-24T05:15:24.489Z,16.00
2017-06-24T05:17:52.040Z,15.90
2017-06-24T05:20:19.582Z,15.70
2017-06-24T05:22:47.875Z,15.70
2017-06-24T05:25:15.436Z,15.70
2017-06-24T05:27:42.970Z,15.50
2017-06-24T05:30:11.288Z,15.50
2017-06-24T05:32:38.815Z,15.50
2017-06-24T05:35:07.143Z,15.40
2017-06-24T05:37:34.677Z,15.40
2017-06-24T05:40:02.233Z,15.50
2017-06-24T05:42:29.770Z,15.50
2017-06-24T05:44:57.334Z,15.60
2017-06-24T05:47:25.623Z,15.70
2017-06-24T05:49:53.175Z,15.70
2017-06-24T05:52:20.703Z,16.00
2017-06-24T05:54:48.269Z,16.20
2017-06-24T05:57:15.798Z,16.30
2017-06-24T05:59:43.356Z,16.00
2017-06-24T06:02:10.882Z,16.00
2017-06-24T06:04:38.437Z,16.70
2017-06-24T06:07:05.967Z,18.10
2017-06-24T06:09:33.518Z,18.50
2017-06-24T06:12:01.050Z,19.30
2017-06-24T06:14:28.610Z,18.50
2017-06-24T06:16:56.134Z,19.30
2017-06-24T06:19:23.670Z,19.20
2017-06-24T06:21:51.980Z,19.00
2017-06-24T06:24:19.515Z,19.00
2017-06-24T06:26:47.841Z,18.90
2017-06-24T06:29:15.370Z,18.90
2017-06-24T06:31:42.927Z,18.80
2017-06-24T06:34:10.463Z,18.40
2017-06-24T06:36:38.788Z,18.20
2017-06-24T06:39:06.319Z,18.10
2017-06-24T06:41:33.869Z,18.10
2017-06-24T06:44:02.161Z,18.10
2017-06-24T06:46:29.728Z,18.10
2017-06-24T06:48:57.266Z,18.30
2017-06-24T06:51:25.588Z,18.70
2017-06-24T06:53:53.123Z,18.70
2017-06-24T06:56:20.680Z,18.70
2017-06-24T06:58:48.211Z,18.80
2017-06-24T07:01:16.535Z,18.60
2017-06-24T07:03:44.063Z,18.60
2017-06-24T07:06:12.379Z,18.60
2017-06-24T07:08:39.910Z,18.60
2017-06-24T07:11:07.457Z,18.20
2017-06-24T07:13:35.753Z,18.40
2017-06-24T07:16:03.286Z,18.40
2017-06-24T07:18:31.618Z,19.00
2017-06-24T07:20:59.146Z,19.00
2017-06-24T07:23:26.705Z,19.20
2017-06-24T07:25:54.234Z,18.90
2017-06-24T07:28:22.563Z,18.90
2017-06-24T07:30:50.099Z,18.90
2017-06-24T07:33:17.655Z,19.00
2017-06-24T07:35:45.189Z,19.10
2017-06-24T07:38:13.512Z,19.00
2017-06-24T07:40:41.049Z,19.00
2017-06-24T07:43:08.607Z,19.50
2017-06-24T07:45:36.908Z,19.70
2017-06-24T07:48:04.468Z,19.70
2017-06-24T07:50:32.003Z,19.60
2017-06-24T07:52:59.561Z,19.30
2017-06-24T07:55:27.850Z,19.50
2017-06-24T07:57:55.398Z,19.50
2017-06-24T08:00:22.919Z,19.80
2017-06-24T08:02:50.467Z,20.00
2017-06-24T08:05:17.988Z,20.10
2017-06-24T08:07:45.554Z,20.20
2017-06-24T08:10:13.074Z,20.40
2017-06-24T08:12:41.395Z,20.40
2017-06-24T08:15:08.928Z,20.40
2017-06-24T08:17:37.221Z,20.70
2017-06-24T08:20:04.777Z,20.70
2017-06-24T08:22:32.303Z,20.40
2017-06-24T08:24:59.858Z,20.80
2017-06-24T08:27:27.378Z,21.10
2017-06-24T08:29:54.943Z,21.30
2017-06-24T08:32:22.495Z,21.30
2017-06-24T08:34:50.072Z,21.40
2017-06-24T08:37:17.600Z,21.30
2017-06-24T08:39:45.159Z,21.20
2017-06-24T08:42:12.706Z,20.90
2017-06-24T08:44:41.036Z,20.40
2017-06-24T08:47:08.587Z,20.40
2017-06-24T08:49:36.143Z,20.10
2017-06-24T08:52:03.679Z,20.00
2017-06-24T08:54:31.242Z,20.30
2017-06-24T08:56:58.778Z,20.60
2017-06-24T08:59:27.104Z,21.20
2017-06-24T09:01:54.627Z,21.10
2017-06-24T09:04:22.187Z,21.50
2017-06-24T09:06:49.719Z,20.90
2017-06-24T09:09:18.044Z,21.70
2017-06-24T09:11:45.582Z,21.70
2017-06-24T09:14:13.142Z,21.90
2017-06-24T09:16:40.691Z,21.70
2017-06-24T09:19:08.991Z,21.80
2017-06-24T09:21:36.548Z,21.80
2017-06-24T09:24:04.082Z,22.20
2017-06-24T09:26:32.403Z,21.80
2017-06-24T09:28:59.949Z,21.80
2017-06-24T09:31:27.513Z,21.80
2017-06-24T09:33:55.050Z,22.10
2017-06-24T09:36:22.603Z,22.20
2017-06-24T09:38:50.133Z,22.00
2017-06-24T09:41:17.704Z,21.90
2017-06-24T09:43:46.010Z,21.30
2017-06-24T09:46:13.576Z,21.20
2017-06-24T09:48:41.103Z,21.20
2017-06-24T09:51:08.664Z,21.40
2017-06-24T09:53:36.965Z,21.50
2017-06-24T09:56:04.530Z,21.50
2017-06-24T09:58:32.057Z,21.60
2017-06-24T10:01:00.387Z,21.80
2017-06-24T10:03:27.930Z,21.80
2017-06-24T10:05:55.487Z,21.60
2017-06-24T10:08:23.027Z,22.00
2017-06-24T10:10:51.370Z,22.30
2017-06-24T10:13:18.905Z,22.30
2017-06-24T10:15:46.472Z,22.90
2017-06-24T10:18:14.016Z,23.40
2017-06-24T10:20:41.582Z,23.60
2017-06-24T10:23:09.127Z,23.90
2017-06-24T10:25:36.663Z,24.00
2017-06-24T10:28:04.995Z,23.00
2017-06-24T10:30:32.535Z,23.00
2017-06-24T10:33:00.105Z,23.10
2017-06-24T10:35:27.657Z,22.80
2017-06-24T10:37:55.258Z,23.00
2017-06-24T10:40:22.812Z,23.00
2017-06-24T10:42:50.390Z,23.00
2017-06-24T10:45:17.942Z,22.60
2017-06-24T10:47:45.499Z,22.40
2017-06-24T10:50:13.043Z,22.40
2017-06-24T10:52:40.598Z,22.70
2017-06-24T10:55:08.136Z,23.00
2017-06-24T10:57:35.713Z,23.00
2017-06-24T11:00:03.267Z,22.80
2017-06-24T11:02:30.835Z,22.90
2017-06-24T11:04:58.383Z,23.30
2017-06-24T11:07:25.985Z,23.90
2017-06-24T11:09:54.318Z,23.40
2017-06-24T11:12:21.887Z,23.30
2017-06-24T11:14:49.442Z,23.90
2017-06-24T11:17:17.041Z,24.10
2017-06-24T11:19:45.371Z,24.70
2017-06-24T11:22:12.958Z,24.70
2017-06-24T11:24:40.502Z,24.00
2017-06-24T11:27:08.061Z,23.90
2017-06-24T11:29:35.629Z,23.20
2017-06-24T11:32:03.179Z,23.40
2017-06-24T11:34:30.759Z,23.10
2017-06-24T11:36:58.319Z,23.40
2017-06-24T11:39:25.883Z,24.00
2017-06-24T11:41:53.440Z,23.80
2017-06-24T11:44:21.006Z,23.90
2017-06-24T11:46:48.571Z,24.30
2017-06-24T11:49:16.142Z,24.70
2017-06-24T11:51:44.459Z,24.50
2017-06-24T11:54:12.034Z,24.50
2017-06-24T11:56:39.592Z,24.60
2017-06-24T11:59:07.166Z,24.60
2017-06-24T12:01:34.715Z,24.50
2017-06-24T12:04:02.287Z,24.20
2017-06-24T12:06:29.849Z,24.30
2017-06-24T12:08:57.414Z,24.20
2017-06-24T12:11:24.959Z,24.50
2017-06-24T12:13:52.543Z,24.00
2017-06-24T12:16:20.087Z,24.00
2017-06-24T12:18:47.657Z,24.10
2017-06-24T12:21:15.225Z,24.30
2017-06-24T12:23:42.802Z,24.80
2017-06-24T12:26:11.139Z,24.70
2017-06-24T12:28:38.726Z,24.70
2017-06-24T12:31:06.286Z,24.70
2017-06-24T12:33:33.834Z,25.20
2017-06-24T12:36:01.402Z,25.30
2017-06-24T12:38:28.938Z,24.80
2017-06-24T12:40:56.500Z,24.00
2017-06-24T12:43:24.040Z,23.60
2017-06-24T12:45:51.612Z,24.20
2017-06-24T12:48:19.149Z,24.50
2017-06-24T12:50:46.714Z,24.70
2017-06-24T12:53:14.251Z,25.10
2017-06-24T12:55:41.834Z,24.70
2017-06-24T12:58:09.388Z,24.60
2017-06-24T13:00:36.972Z,24.80
2017-06-24T13:03:04.518Z,24.50
2017-06-24T13:05:32.070Z,24.40
2017-06-24T13:07:59.623Z,24.50
2017-06-24T13:10:27.187Z,24.80
2017-06-24T13:12:54.735Z,24.90
2017-06-24T13:15:22.306Z,25.10
2017-06-24T13:17:49.847Z,24.90
2017-06-24T13:20:18.195Z,25.40
2017-06-24T13:22:45.747Z,25.30
2017-06-24T13:25:13.331Z,25.70
2017-06-24T13:27:41.634Z,24.10
2017-06-24T13:30:09.203Z,24.10
2017-06-24T13:32:36.748Z,24.70
2017-06-24T13:35:04.287Z,25.10
2017-06-24T13:37:32.619Z,25.80
2017-06-24T13:40:00.162Z,25.70
2017-06-24T13:42:27.729Z,26.00
2017-06-24T13:44:55.270Z,25.80
2017-06-24T13:47:22.844Z,25.70
2017-06-24T13:49:50.386Z,25.20
2017-06-24T13:52:17.938Z,25.30
2017-06-24T13:54:45.484Z,25.40
2017-06-24T13:57:13.094Z,25.50
2017-06-24T13:59:40.639Z,25.00
2017-06-24T14:02:08.203Z,25.50
2017-06-24T14:04:35.727Z,25.70
2017-06-24T14:07:04.065Z,25.30
2017-06-24T14:09:31.603Z,25.30
2017-06-24T14:11:59.158Z,25.00
2017-06-24T14:14:26.695Z,25.40
2017-06-24T14:16:55.010Z,25.20
2017-06-24T14:19:22.547Z,25.10
2017-06-24T14:21:50.102Z,25.40
2017-06-24T14:24:17.634Z,25.80
2017-06-24T14:26:45.959Z,26.10
2017-06-24T14:29:13.487Z,26.10
2017-06-24T14:31:41.810Z,25.70
2017-06-24T14:34:09.339Z,25.70
2017-06-24T14:36:36.912Z,25.50
2017-06-24T14:39:04.448Z,25.30
2017-06-24T14:41:31.983Z,25.60
2017-06-24T14:43:59.544Z,25.60
2017-06-24T14:46:27.847Z,25.30
2017-06-24T14:48:55.402Z,25.30
2017-06-24T14:51:22.935Z,25.50
2017-06-24T14:53:50.490Z,25.20
2017-06-24T14:56:18.023Z,25.30
2017-06-24T14:58:45.582Z,25.60
2017-06-24T15:01:13.117Z,25.60
2017-06-24T15:03:40.675Z,25.60
2017-06-24T15:06:08.202Z,25.60
2017-06-24T15:08:36.528Z,25.30
2017-06-24T15:11:04.061Z,25.30
2017-06-24T15:13:31.610Z,25.10
2017-06-24T15:15:59.910Z,24.60
2017-06-24T15:18:27.470Z,24.60
2017-06-24T15:20:54.994Z,24.80
2017-06-24T15:23:23.318Z,24.80
2017-06-24T15:25:50.872Z,24.80
2017-06-24T15:28:18.432Z,24.80
2017-06-24T15:30:45.963Z,24.80
2017-06-24T15:33:13.529Z,24.60
2017-06-24T15:35:41.062Z,24.90
2017-06-24T15:38:08.622Z,24.80
2017-06-24T15:40:36.154Z,24.50
2017-06-24T15:43:03.724Z,24.70
2017-06-24T15:45:31.255Z,24.90
2017-06-24T15:47:58.790Z,24.80
2017-06-24T15:50:26.355Z,24.90
2017-06-24T15:52:53.886Z,24.90
2017-06-24T15:55:21.444Z,25.00
2017-06-24T15:57:49.753Z,25.10
2017-06-24T16:00:17.311Z,25.10
2017-06-24T16:02:44.842Z,24.70
2017-06-24T16:05:13.177Z,24.50
2017-06-24T16:07:40.715Z,24.50
2017-06-24T16:10:08.281Z,24.60
2017-06-24T16:12:35.807Z,24.50
2017-06-24T16:15:04.139Z,24.70
2017-06-24T16:17:31.666Z,24.70
2017-06-24T16:19:59.223Z,25.10
2017-06-24T16:22:26.751Z,25.20
2017-06-24T16:24:55.078Z,26.50
2017-06-24T16:27:22.614Z,26.50
2017-06-24T16:29:50.173Z,26.70
2017-06-24T16:32:17.705Z,26.80
2017-06-24T16:34:46.035Z,26.70
2017-06-24T16:37:13.565Z,26.70
2017-06-24T16:39:41.118Z,27.40
2017-06-24T16:42:09.415Z,27.40
2017-06-24T16:44:36.949Z,27.40
2017-06-24T16:47:05.271Z,27.00
2017-06-24T16:49:32.797Z,27.00
2017-06-24T16:52:00.357Z,26.60
2017-06-24T16:54:27.886Z,26.80
2017-06-24T16:56:55.443Z,26.60
2017-06-24T16:59:22.979Z,27.10
2017-06-24T17:01:50.532Z,26.90
2017-06-24T17:04:18.064Z,26.40
2017-06-24T17:06:45.623Z,26.20
2017-06-24T17:09:13.159Z,26.90
2017-06-24T17:11:41.487Z,27.00
2017-06-24T17:14:09.025Z,27.00
2017-06-24T17:16:36.586Z,26.70
2017-06-24T17:19:04.127Z,26.00
2017-06-24T17:21:32.443Z,26.60
2017-06-24T17:23:59.978Z,26.60
2017-06-24T17:26:27.543Z,26.50
2017-06-24T17:28:55.091Z,26.50
2017-06-24T17:31:22.649Z,26.50
2017-06-24T17:33:50.188Z,26.50
2017-06-24T17:36:18.515Z,26.00
2017-06-24T17:38:46.047Z,26.00
2017-06-24T17:41:13.603Z,26.00
2017-06-24T17:43:41.139Z,26.20
2017-06-24T17:46:08.699Z,25.70
2017-06-24T17:48:36.235Z,24.90
2017-06-24T17:51:03.772Z,24.40
2017-06-24T17:53:31.331Z,24.00
2017-06-24T17:55:58.870Z,23.40
2017-06-24T17:58:26.422Z,23.10
2017-06-24T18:00:53.955Z,22.90
2017-06-24T18:03:22.281Z,22.60
2017-06-24T18:05:49.810Z,22.60
2017-06-24T18:08:18.138Z,22.60
2017-06-24T18:10:45.666Z,22.50
2017-06-24T18:13:13.223Z,22.50
2017-06-24T18:15:40.759Z,22.40
2017-06-24T18:18:09.083Z,22.30
2017-06-24T18:20:36.620Z,22.30
2017-06-24T18:23:04.184Z,22.20
2017-06-24T18:25:31.712Z,22.20
2017-06-24T18:27:59.288Z,22.10
2017-06-24T18:30:26.824Z,22.10
2017-06-24T18:32:54.387Z,22.00
2017-06-24T18:35:22.696Z,21.90
2017-06-24T18:37:50.248Z,21.90
2017-06-24T18:40:17.779Z,21.90
2017-06-24T18:42:46.109Z,21.90
2017-06-24T18:45:13.636Z,21.90
2017-06-24T18:47:41.202Z,21.70
2017-06-24T18:50:08.735Z,21.60
2017-06-24T18:52:36.294Z,21.70
2017-06-24T18:55:03.826Z,21.70
2017-06-24T18:57:31.361Z,21.60
2017-06-24T18:59:58.915Z,21.60
2017-06-24T19:02:26.449Z,21.50
2017-06-24T19:04:54.794Z,21.30
2017-06-24T19:07:22.327Z,21.30
2017-06-24T19:09:49.887Z,21.30
2017-06-24T19:12:17.423Z,21.30
2017-06-24T19:14:44.991Z,21.30
2017-06-24T19:17:12.523Z,21.10
2017-06-24T19:19:40.851Z,21.10
2017-06-24T19:22:08.382Z,21.00
2017-06-24T19:24:35.938Z,21.10
2017-06-24T19:27:03.467Z,21.00
2017-06-24T19:29:31.783Z,20.70
2017-06-24T19:31:59.320Z,20.70
2017-06-24T19:34:27.646Z,20.60
2017-06-24T19:36:55.178Z,20.60
2017-06-24T19:39:22.731Z,20.60
2017-06-24T19:41:50.263Z,20.40
2017-06-24T19:44:18.585Z,20.20
2017-06-24T19:46:46.136Z,20.20
2017-06-24T19:49:14.344Z,20.20
2017-06-24T19:51:41.897Z,20.20
2017-06-24T19:54:09.459Z,20.10
2017-06-24T19:56:36.994Z,20.10
2017-06-24T19:59:04.534Z,20.00
2017-06-24T20:01:32.099Z,19.90
2017-06-24T20:03:59.654Z,19.70
2017-06-24T20:06:27.218Z,19.70
2017-06-24T20:08:54.747Z,19.60
2017-06-24T20:11:23.071Z,19.50
2017-06-24T20:13:50.598Z,19.50
2017-06-24T20:16:18.154Z,19.50
2017-06-24T20:18:46.450Z,19.30
2017-06-24T20:21:14.008Z,19.30
2017-06-24T20:23:41.564Z,19.20
2017-06-24T20:26:09.117Z,19.10
2017-06-24T20:28:37.415Z,19.10
2017-06-24T20:31:04.988Z,19.10
2017-06-24T20:33:32.530Z,19.00
2017-06-24T20:36:00.083Z,18.90
2017-06-24T20:38:27.614Z,18.80
2017-06-24T20:40:55.168Z,18.80
2017-06-24T20:43:22.690Z,18.80
2017-06-24T20:45:50.247Z,18.80
2017-06-24T20:48:17.773Z,18.90
2017-06-24T20:50:46.776Z,18.80
2017-06-24T20:53:14.435Z,18.80
2017-06-24T20:55:42.143Z,18.80
2017-06-24T20:58:09.820Z,18.70
2017-06-24T21:00:37.416Z,18.60
2017-06-24T21:03:05.064Z,18.50
2017-06-24T21:05:32.797Z,18.50
2017-06-24T21:08:01.198Z,18.50
2017-06-24T21:10:28.829Z,18.40
2017-06-24T21:12:56.511Z,18.40
2017-06-24T21:15:24.222Z,18.40
2017-06-24T21:17:51.856Z,18.40
2017-06-24T21:20:20.199Z,18.20
2017-06-24T21:22:47.827Z,18.20
2017-06-24T21:25:15.416Z,18.00
2017-06-24T21:27:43.010Z,18.00
2017-06-24T21:30:11.355Z,18.20
2017-06-24T21:32:39.105Z,18.10
2017-06-24T21:35:06.665Z,18.10
2017-06-24T21:37:34.300Z,18.10
2017-06-24T21:40:01.862Z,18.20
2017-06-24T21:42:29.406Z,18.10
2017-06-24T21:44:57.742Z,17.80
2017-06-24T21:47:25.284Z,17.80
2017-06-24T21:49:52.842Z,17.70
2017-06-24T21:52:20.374Z,17.60
2017-06-24T21:54:47.931Z,17.60
2017-06-24T21:57:15.462Z,17.50
2017-06-24T21:59:43.028Z,17.30
2017-06-24T22:02:10.567Z,17.30
2017-06-24T22:04:38.127Z,17.40
2017-06-24T22:07:05.675Z,17.50
2017-06-24T22:09:33.234Z,17.60
2017-06-24T22:12:00.773Z,17.50
2017-06-24T22:14:28.338Z,17.50
2017-06-24T22:16:55.871Z,17.60
2017-06-24T22:19:23.431Z,17.60
2017-06-24T22:21:50.968Z,17.60
2017-06-24T22:24:19.289Z,17.70
2017-06-24T22:26:46.830Z,17.70
2017-06-24T22:29:14.374Z,17.70
2017-06-24T22:51:40.352Z,17.20
2017-06-24T22:54:07.886Z,17.10
2017-06-24T22:56:36.209Z,17.20
2017-06-24T22:59:03.743Z,17.20
2017-06-24T23:01:31.293Z,17.20
2017-06-24T23:03:59.587Z,17.20
2017-06-24T23:06:27.138Z,17.20
2017-06-24T23:08:54.665Z,17.20
2017-06-24T23:11:22.215Z,17.20
2017-06-24T23:13:49.734Z,17.10
2017-06-24T23:16:17.282Z,17.10
2017-06-24T23:18:44.813Z,17.10
2017-06-24T23:21:13.131Z,17.10
2017-06-24T23:23:40.662Z,17.00
2017-06-24T23:26:08.979Z,17.00
2017-06-24T23:28:36.510Z,17.00
2017-06-24T23:31:04.058Z,16.90
2017-06-24T23:33:32.350Z,16.80
2017-06-24T23:35:59.914Z,16.80
2017-06-24T23:38:27.443Z,16.90
2017-06-24T23:40:54.970Z,17.00
2017-06-24T23:43:22.516Z,17.00
2017-06-24T23:45:50.043Z,17.00
2017-06-24T23:48:17.602Z,17.00
2017-06-24T23:50:45.121Z,17.00
2017-06-24T23:53:12.662Z,16.90
2017-06-24T23:55:40.186Z,16.90
2017-06-24T23:58:07.738Z,16.80
